Time;durP1;ratioP1;P1;durP2;ratioP2;P2;SDS_P1;SDS_P2;PMS_P1;PMS_P2;Temp;Humidity;BMP_temperature;BMP_pressure;BME280_temperature;BME280_humidity;BME280_pressure;Samples;Min_cycle;Max_cycle;Signal;HPM_P1;HPM_P2
2021/09/24 00:00:10;;;;;;;4.97;2.22;;;17.20;93.50;;;;;;5035541;28;20026;-77
2021/09/24 00:02:36;;;;;;;3.50;1.88;;;17.20;93.30;;;;;;5035568;28;20014;-75
2021/09/24 00:05:01;;;;;;;3.80;1.88;;;17.30;93.30;;;;;;5035420;28;20037;-77
2021/09/24 00:07:27;;;;;;;8.90;1.98;;;17.30;93.20;;;;;;5035164;28;20424;-76
2021/09/24 00:09:53;;;;;;;8.30;2.45;;;17.30;93.20;;;;;;5034680;28;20459;-77
2021/09/24 00:12:18;;;;;;;4.72;1.70;;;17.30;93.30;;;;;;5035787;28;20076;-77
2021/09/24 00:14:44;;;;;;;5.50;2.05;;;17.30;93.30;;;;;;5034354;28;20056;-77
2021/09/24 00:17:10;;;;;;;4.00;2.05;;;17.20;93.30;;;;;;5033846;28;20121;-78
2021/09/24 00:19:35;;;;;;;8.65;2.00;;;17.20;93.30;;;;;;5034046;28;20117;-78
2021/09/24 00:22:01;;;;;;;4.60;1.65;;;17.20;93.40;;;;;;5033327;28;20099;-77
2021/09/24 00:24:27;;;;;;;5.88;2.25;;;17.20;93.70;;;;;;5033826;28;20473;-77
2021/09/24 00:26:52;;;;;;;6.93;2.25;;;17.20;93.40;;;;;;5034388;28;20029;-77
2021/09/24 00:29:18;;;;;;;5.28;2.00;;;17.20;93.40;;;;;;5034970;28;20113;-77
2021/09/24 00:31:44;;;;;;;5.18;1.70;;;17.20;93.40;;;;;;5034461;28;20381;-77
2021/09/24 00:34:09;;;;;;;5.97;2.30;;;17.20;93.40;;;;;;5035216;28;20521;-77
2021/09/24 00:36:35;;;;;;;5.10;2.30;;;17.20;93.40;;;;;;5016317;28;20060;-77
2021/09/24 00:39:01;;;;;;;6.65;2.42;;;17.10;93.40;;;;;;5029660;28;20087;-76
2021/09/24 00:41:26;;;;;;;4.60;1.75;;;17.10;93.40;;;;;;5015061;28;20054;-77
2021/09/24 00:43:52;;;;;;;5.25;2.00;;;17.10;93.40;;;;;;5029523;28;20094;-76
2021/09/24 00:46:18;;;;;;;5.13;1.50;;;17.10;93.40;;;;;;5014495;28;20041;-77
2021/09/24 00:48:43;;;;;;;4.85;1.70;;;17.10;93.40;;;;;;5012968;28;20071;-76
2021/09/24 00:51:09;;;;;;;7.25;2.28;;;17.10;93.40;;;;;;5014856;28;20022;-77
2021/09/24 00:53:35;;;;;;;7.00;2.22;;;17.10;93.40;;;;;;5029981;28;20113;-77
2021/09/24 00:56:00;;;;;;;8.02;2.33;;;17.10;93.40;;;;;;5014099;28;20050;-76
2021/09/24 00:58:26;;;;;;;5.95;2.00;;;17.10;93.40;;;;;;5014972;28;20109;-77
2021/09/24 01:00:52;;;;;;;5.13;2.05;;;17.10;93.40;;;;;;5014108;28;20416;-77
2021/09/24 01:03:19;;;;;;;5.45;2.30;;;17.10;93.70;;;;;;5014878;28;20120;-77
2021/09/24 01:05:44;;;;;;;11.05;1.92;;;17.10;93.50;;;;;;5029158;28;20470;-76
2021/09/24 01:08:10;;;;;;;8.48;2.53;;;17.10;93.50;;;;;;5014707;28;20057;-77
2021/09/24 01:10:36;;;;;;;6.75;2.10;;;17.10;93.40;;;;;;5014556;28;20072;-76
2021/09/24 01:13:02;;;;;;;7.85;2.30;;;17.10;93.40;;;;;;5012518;28;20021;-76
2021/09/24 01:15:27;;;;;;;4.40;1.80;;;17.10;93.50;;;;;;5014077;28;20399;-76
2021/09/24 01:17:53;;;;;;;4.15;1.40;;;17.10;93.40;;;;;;5028984;28;20153;-76
2021/09/24 01:20:21;;;;;;;5.57;2.15;;;17.10;93.40;;;;;;5013133;28;20089;-76
2021/09/24 01:22:51;;;;;;;3.53;1.90;;;17.10;93.40;;;;;;5012399;28;20117;-75
2021/09/24 01:25:19;;;;;;;3.50;1.70;;;17.10;93.40;;;;;;5029497;28;20473;-76
2021/09/24 01:27:45;;;;;;;7.97;2.05;;;17.10;93.40;;;;;;5013398;28;20034;-75
2021/09/24 01:30:12;;;;;;;6.38;1.83;;;17.10;93.40;;;;;;5013832;28;20030;-76
2021/09/24 01:32:38;;;;;;;4.60;1.90;;;17.10;93.40;;;;;;5014043;28;20032;-79
2021/09/24 01:35:06;;;;;;;5.57;1.98;;;17.10;93.40;;;;;;5017468;28;20466;-77
2021/09/24 01:37:33;;;;;;;4.75;1.77;;;17.00;93.40;;;;;;5033701;28;20030;-77
2021/09/24 01:39:58;;;;;;;4.68;1.95;;;17.00;93.40;;;;;;5031813;28;20052;-77
2021/09/24 01:42:24;;;;;;;5.80;2.10;;;17.00;93.40;;;;;;5033321;28;20466;-77
2021/09/24 01:44:50;;;;;;;3.22;1.58;;;17.00;93.40;;;;;;5033030;28;20103;-77
2021/09/24 01:47:16;;;;;;;5.55;2.00;;;17.00;93.40;;;;;;5033321;28;20389;-78
2021/09/24 01:49:42;;;;;;;7.47;1.98;;;17.10;93.40;;;;;;5032192;28;20028;-78
2021/09/24 01:52:08;;;;;;;4.65;1.50;;;17.00;93.40;;;;;;5032644;28;20029;-78
2021/09/24 01:54:34;;;;;;;4.72;1.75;;;17.00;93.50;;;;;;5032134;28;20021;-77
2021/09/24 01:57:00;;;;;;;6.05;1.95;;;17.00;93.50;;;;;;5031890;28;20079;-77
2021/09/24 01:59:25;;;;;;;3.63;2.05;;;17.00;93.50;;;;;;5032049;28;20033;-77
2021/09/24 02:01:51;;;;;;;6.93;1.85;;;17.00;93.50;;;;;;5032761;28;20529;-78
2021/09/24 02:04:17;;;;;;;6.45;1.88;;;17.00;93.50;;;;;;5031918;28;20112;-77
2021/09/24 02:06:44;;;;;;;5.32;2.10;;;17.00;93.50;;;;;;5033630;28;20466;-78
2021/09/24 02:09:10;;;;;;;6.75;1.75;;;17.00;93.50;;;;;;5033418;28;20025;-78
2021/09/24 02:11:36;;;;;;;4.03;2.20;;;17.00;93.50;;;;;;5031836;28;20025;-78
2021/09/24 02:14:02;;;;;;;3.47;2.00;;;17.00;93.50;;;;;;5030800;28;20358;-76
2021/09/24 02:16:27;;;;;;;4.93;2.30;;;16.90;93.50;;;;;;5033026;28;20063;-77
2021/09/24 02:18:53;;;;;;;4.43;1.85;;;16.90;93.50;;;;;;5032342;28;20029;-76
2021/09/24 02:21:19;;;;;;;4.97;2.33;;;16.90;93.50;;;;;;5032630;28;20025;-78
2021/09/24 02:23:45;;;;;;;9.55;2.78;;;16.90;93.50;;;;;;5032619;28;20032;-76
2021/09/24 02:26:11;;;;;;;4.95;2.35;;;16.90;93.60;;;;;;5032873;28;20155;-76
2021/09/24 02:28:37;;;;;;;6.00;2.13;;;16.90;93.60;;;;;;5032781;28;20064;-76
2021/09/24 02:31:09;;;;;;;6.38;2.20;;;16.90;93.60;;;;;;5032095;28;20018;-76
2021/09/24 02:33:40;;;;;;;6.05;2.42;;;16.90;93.60;;;;;;5032766;28;20484;-76
2021/09/24 02:36:07;;;;;;;4.32;2.13;;;16.90;93.60;;;;;;5046787;28;20129;-75
2021/09/24 02:38:33;;;;;;;5.72;2.58;;;16.90;93.60;;;;;;5032559;28;20041;-75
2021/09/24 02:41:00;;;;;;;6.32;2.15;;;16.90;93.60;;;;;;5031915;28;20026;-76
2021/09/24 02:43:26;;;;;;;8.85;2.72;;;17.00;93.60;;;;;;5031385;28;20025;-76
2021/09/24 02:45:52;;;;;;;7.85;2.40;;;17.00;93.90;;;;;;5031818;28;20021;-76
2021/09/24 02:48:18;;;;;;;4.22;2.40;;;17.00;93.60;;;;;;5032396;28;20497;-76
2021/09/24 02:50:44;;;;;;;5.07;2.38;;;17.00;93.60;;;;;;5031112;28;20048;-77
2021/09/24 02:53:09;;;;;;;6.85;2.70;;;17.00;93.60;;;;;;5031735;28;20021;-77
2021/09/24 02:55:35;;;;;;;6.57;2.30;;;17.00;93.60;;;;;;5047288;28;20091;-76
2021/09/24 02:58:01;;;;;;;6.35;2.97;;;16.90;93.60;;;;;;5031705;28;20021;-76
2021/09/24 03:00:27;;;;;;;6.68;2.65;;;16.90;93.60;;;;;;5030977;28;20052;-76
2021/09/24 03:02:53;;;;;;;6.40;2.60;;;16.90;93.60;;;;;;5032103;28;20098;-76
2021/09/24 03:05:19;;;;;;;5.43;2.20;;;16.90;93.70;;;;;;5031357;28;20022;-76
2021/09/24 03:07:44;;;;;;;7.00;2.45;;;16.90;93.70;;;;;;5032101;28;20022;-77
2021/09/24 03:10:11;;;;;;;5.10;2.22;;;16.90;93.70;;;;;;5031513;28;20477;-76
2021/09/24 03:12:37;;;;;;;7.93;2.10;;;16.90;93.70;;;;;;5032084;28;20017;-79
2021/09/24 03:15:04;;;;;;;5.30;2.45;;;16.90;93.70;;;;;;5031508;28;20596;-76
2021/09/24 03:17:30;;;;;;;4.60;2.42;;;16.90;93.70;;;;;;5031897;28;20116;-76
2021/09/24 03:19:56;;;;;;;7.82;2.53;;;16.80;93.70;;;;;;5031506;28;20119;-78
2021/09/24 03:22:21;;;;;;;3.83;1.85;;;16.80;93.70;;;;;;5013524;28;20026;-76
2021/09/24 03:24:47;;;;;;;5.72;2.25;;;16.80;93.80;;;;;;5012259;28;20033;-76
2021/09/24 03:27:13;;;;;;;5.32;2.17;;;16.90;93.80;;;;;;5010585;28;20026;-76
2021/09/24 03:29:39;;;;;;;9.57;2.50;;;16.90;93.70;;;;;;5010861;28;20018;-76
2021/09/24 03:32:05;;;;;;;7.57;2.30;;;16.90;93.70;;;;;;5026857;28;20040;-76
2021/09/24 03:34:31;;;;;;;4.72;1.95;;;16.90;93.70;;;;;;5011743;28;20029;-76
2021/09/24 03:36:58;;;;;;;4.75;2.88;;;16.90;93.70;;;;;;5011528;28;20046;-77
2021/09/24 03:39:23;;;;;;;8.75;3.63;;;16.90;93.70;;;;;;5012271;28;20030;-77
2021/09/24 03:41:49;;;;;;;8.40;4.38;;;16.90;93.70;;;;;;5012118;28;20102;-77
2021/09/24 03:44:15;;;;;;;7.82;3.17;;;16.90;93.80;;;;;;5011543;28;20041;-77
2021/09/24 03:46:41;;;;;;;7.65;3.03;;;16.80;93.80;;;;;;5010793;28;20455;-77
2021/09/24 03:49:06;;;;;;;6.28;2.80;;;16.80;93.80;;;;;;5011522;28;20022;-77
2021/09/24 03:51:32;;;;;;;7.80;3.10;;;16.80;93.90;;;;;;5011810;28;20430;-76
2021/09/24 03:53:58;;;;;;;5.22;2.67;;;16.70;93.90;;;;;;5011505;28;20484;-76
2021/09/24 03:56:24;;;;;;;7.90;2.63;;;16.60;94.00;;;;;;5011706;28;20045;-76
2021/09/24 03:58:50;;;;;;;8.30;3.08;;;16.60;94.10;;;;;;5011806;28;20076;-77
2021/09/24 04:01:16;;;;;;;5.65;2.90;;;16.50;94.10;;;;;;5020643;28;20369;-76
2021/09/24 04:03:43;;;;;;;9.90;3.00;;;16.60;94.20;;;;;;5029250;28;20041;-76
2021/09/24 04:06:09;;;;;;;8.48;3.38;;;16.50;94.20;;;;;;5026785;28;20025;-76
2021/09/24 04:08:35;;;;;;;7.97;3.25;;;16.60;94.20;;;;;;5030834;28;20033;-76
2021/09/24 04:11:01;;;;;;;5.75;3.30;;;16.60;94.20;;;;;;5030661;28;20029;-76
2021/09/24 04:13:27;;;;;;;8.60;3.45;;;16.60;94.20;;;;;;5031028;28;20029;-76
2021/09/24 04:15:53;;;;;;;8.07;3.58;;;16.50;94.20;;;;;;5029710;28;20033;-76
2021/09/24 04:18:18;;;;;;;7.68;3.55;;;16.50;94.20;;;;;;5030575;28;20120;-77
2021/09/24 04:20:44;;;;;;;9.98;3.95;;;16.50;94.30;;;;;;5031605;28;20025;-76
2021/09/24 04:23:11;;;;;;;8.07;3.42;;;16.50;94.30;;;;;;5030103;28;20033;-78
2021/09/24 04:25:37;;;;;;;9.95;5.10;;;16.50;94.30;;;;;;5032310;28;20033;-78
2021/09/24 04:28:03;;;;;;;8.98;4.22;;;16.60;94.30;;;;;;5033571;28;20363;-77
2021/09/24 04:30:28;;;;;;;11.18;4.63;;;16.60;94.20;;;;;;5034825;28;20119;-78
2021/09/24 04:32:54;;;;;;;11.73;4.93;;;16.70;94.20;;;;;;5032541;28;20371;-77
2021/09/24 04:35:20;;;;;;;12.77;6.25;;;16.70;94.20;;;;;;5031439;28;20053;-77
2021/09/24 04:37:45;;;;;;;12.88;5.80;;;16.70;94.20;;;;;;5034516;28;20038;-77
2021/09/24 04:40:12;;;;;;;13.45;5.80;;;16.70;94.20;;;;;;5033619;28;20095;-77
2021/09/24 04:42:37;;;;;;;11.30;6.10;;;16.60;94.20;;;;;;5032689;28;20067;-77
2021/09/24 04:45:04;;;;;;;14.32;6.00;;;16.60;94.30;;;;;;5032924;28;20049;-77
2021/09/24 04:47:30;;;;;;;16.70;6.85;;;16.60;94.30;;;;;;5034471;28;20528;-78
2021/09/24 04:49:55;;;;;;;15.02;7.38;;;16.60;94.30;;;;;;5033177;28;20021;-81
2021/09/24 04:52:21;;;;;;;15.88;7.35;;;16.60;94.30;;;;;;5032711;28;20049;-76
2021/09/24 04:54:49;;;;;;;20.55;9.77;;;16.60;94.30;;;;;;5034629;28;20021;-76
2021/09/24 04:57:16;;;;;;;18.05;8.88;;;16.70;94.30;;;;;;5033799;28;20029;-75
2021/09/24 04:59:41;;;;;;;20.48;10.60;;;16.60;94.30;;;;;;5034489;28;20083;-73
2021/09/24 05:02:07;;;;;;;23.02;9.80;;;16.50;94.40;;;;;;5031999;28;20377;-74
2021/09/24 05:04:33;;;;;;;22.73;9.82;;;16.50;94.50;;;;;;5034162;28;20500;-74
2021/09/24 05:06:58;;;;;;;20.60;9.57;;;16.50;94.60;;;;;;5030629;28;20099;-76
2021/09/24 05:09:24;;;;;;;26.60;10.73;;;16.50;94.60;;;;;;5032005;28;20052;-76
2021/09/24 05:11:50;;;;;;;18.77;8.68;;;16.50;94.70;;;;;;5031982;28;20083;-76
2021/09/24 05:14:15;;;;;;;23.27;11.00;;;16.60;94.70;;;;;;5031671;28;20072;-76
2021/09/24 05:16:41;;;;;;;26.58;11.05;;;16.60;94.60;;;;;;5031964;28;20108;-76
2021/09/24 05:19:07;;;;;;;25.67;11.00;;;16.70;94.60;;;;;;5031064;28;20118;-77
2021/09/24 05:21:32;;;;;;;23.45;10.32;;;16.70;94.60;;;;;;5031928;28;20029;-75
2021/09/24 05:23:58;;;;;;;23.30;10.52;;;16.70;94.60;;;;;;5030702;28;20025;-77
2021/09/24 05:26:24;;;;;;;30.15;11.63;;;16.70;94.60;;;;;;5030996;28;20033;-76
2021/09/24 05:28:50;;;;;;;32.95;12.43;;;16.70;94.60;;;;;;5031689;28;20436;-76
2021/09/24 05:31:16;;;;;;;27.48;11.27;;;16.70;94.60;;;;;;5028105;28;20079;-76
2021/09/24 05:33:41;;;;;;;34.00;11.85;;;16.70;94.70;;;;;;5031637;28;20032;-75
2021/09/24 05:36:11;;;;;;;27.75;10.55;;;16.80;94.70;;;;;;5030168;28;20045;-75
2021/09/24 05:38:37;;;;;;;30.02;12.40;;;16.80;94.70;;;;;;5031476;28;20018;-74
2021/09/24 05:41:03;;;;;;;37.20;12.75;;;16.80;94.70;;;;;;5033211;28;20076;-75
2021/09/24 05:43:28;;;;;;;32.80;13.15;;;16.80;94.80;;;;;;5032107;28;20029;-75
2021/09/24 05:45:54;;;;;;;31.40;13.93;;;16.80;94.80;;;;;;5032221;28;20025;-75
2021/09/24 05:48:20;;;;;;;32.80;12.90;;;16.90;94.80;;;;;;5032414;28;20523;-75
2021/09/24 05:50:45;;;;;;;22.52;8.98;;;16.90;94.80;;;;;;5033327;28;20091;-74
2021/09/24 05:53:11;;;;;;;36.67;13.43;;;16.90;94.80;;;;;;5032633;28;20021;-75
2021/09/24 05:55:38;;;;;;;36.55;12.85;;;16.90;94.80;;;;;;5033163;28;20061;-74
2021/09/24 05:58:04;;;;;;;32.42;13.38;;;16.90;94.90;;;;;;5032610;28;20025;-74
2021/09/24 06:00:30;;;;;;;36.42;13.30;;;16.90;95.00;;;;;;5033140;28;20040;-74
2021/09/24 06:02:55;;;;;;;32.50;12.98;;;16.90;95.00;;;;;;5033321;28;20032;-74
2021/09/24 06:05:21;;;;;;;35.42;13.05;;;16.90;95.00;;;;;;5032135;28;20604;-75
2021/09/24 06:07:47;;;;;;;42.60;14.38;;;16.90;95.10;;;;;;5033028;28;20033;-75
2021/09/24 06:10:15;;;;;;;39.28;15.32;;;16.90;95.20;;;;;;5032398;28;20025;-75
2021/09/24 06:12:41;;;;;;;32.97;13.63;;;16.90;95.20;;;;;;5031374;28;20025;-75
2021/09/24 06:15:07;;;;;;;34.40;13.98;;;16.90;95.20;;;;;;5032512;28;20021;-75
2021/09/24 06:17:33;;;;;;;36.15;15.35;;;16.90;95.20;;;;;;5032659;28;20500;-74
2021/09/24 06:20:00;;;;;;;39.45;15.18;;;17.00;95.30;;;;;;5031224;28;20098;-74
2021/09/24 06:22:26;;;;;;;36.88;14.27;;;17.00;95.40;;;;;;5032001;28;20064;-74
2021/09/24 06:24:52;;;;;;;32.53;13.38;;;17.00;95.40;;;;;;5031238;28;20026;-74
2021/09/24 06:27:19;;;;;;;32.92;12.85;;;17.00;95.50;;;;;;5030549;28;20029;-75
2021/09/24 06:29:46;;;;;;;30.55;14.10;;;17.00;95.50;;;;;;5032643;28;20033;-75
2021/09/24 06:32:13;;;;;;;24.20;9.68;;;17.00;95.50;;;;;;5031919;28;20021;-75
2021/09/24 06:34:39;;;;;;;34.58;13.98;;;17.10;95.50;;;;;;5030603;28;20033;-75
2021/09/24 06:37:06;;;;;;;38.28;13.80;;;17.10;95.50;;;;;;5030549;28;20175;-74
2021/09/24 06:39:31;;;;;;;32.25;11.32;;;17.10;95.50;;;;;;5031124;28;20025;-75
2021/09/24 06:41:57;;;;;;;26.80;13.00;;;17.10;95.50;;;;;;5031017;28;20378;-75
2021/09/24 06:44:24;;;;;;;30.40;12.85;;;17.20;95.50;;;;;;5031479;28;20466;-74
2021/09/24 06:46:49;;;;;;;34.65;13.40;;;17.20;95.50;;;;;;5030876;28;20026;-74
2021/09/24 06:49:16;;;;;;;32.33;13.45;;;17.20;95.50;;;;;;5031306;28;20022;-74
2021/09/24 06:51:42;;;;;;;30.80;11.43;;;17.10;95.60;;;;;;5031888;28;20367;-75
2021/09/24 06:54:08;;;;;;;28.60;12.52;;;17.10;95.70;;;;;;5031617;28;20026;-75
2021/09/24 06:56:34;;;;;;;34.55;12.02;;;17.10;95.70;;;;;;5031889;28;20502;-74
2021/09/24 06:59:01;;;;;;;32.65;13.75;;;17.10;95.70;;;;;;5030726;28;20033;-74
2021/09/24 07:01:27;;;;;;;28.55;12.65;;;17.10;95.80;;;;;;5031423;28;20079;-75
2021/09/24 07:03:53;;;;;;;23.73;11.50;;;17.10;95.80;;;;;;5030730;28;20351;-74
2021/09/24 07:06:19;;;;;;;28.70;12.05;;;17.10;95.80;;;;;;5031791;28;20033;-74
2021/09/24 07:08:44;;;;;;;31.05;12.95;;;17.10;95.80;;;;;;5030654;28;20110;-74
2021/09/24 07:11:10;;;;;;;32.72;12.32;;;17.10;95.80;;;;;;5030040;28;20454;-76
2021/09/24 07:13:36;;;;;;;28.85;12.40;;;17.20;95.90;;;;;;5031901;28;20025;-74
2021/09/24 07:16:02;;;;;;;24.48;10.63;;;17.20;95.90;;;;;;5031607;28;20038;-74
2021/09/24 07:18:28;;;;;;;23.48;10.38;;;17.20;95.80;;;;;;5031329;28;20037;-74
2021/09/24 07:20:54;;;;;;;28.88;12.25;;;17.20;95.80;;;;;;5030223;28;20029;-74
2021/09/24 07:23:21;;;;;;;31.33;13.00;;;17.20;95.90;;;;;;5030929;28;20025;-74
2021/09/24 07:25:47;;;;;;;22.30;9.82;;;17.20;95.90;;;;;;5031623;28;20053;-75
2021/09/24 07:28:13;;;;;;;28.27;11.30;;;17.30;95.90;;;;;;5030990;28;20473;-75
2021/09/24 07:30:39;;;;;;;31.08;13.27;;;17.30;95.80;;;;;;5031815;28;20037;-74
2021/09/24 07:33:04;;;;;;;21.30;9.95;;;17.30;95.80;;;;;;5032077;28;20021;-75
2021/09/24 07:35:30;;;;;;;31.42;12.88;;;17.30;95.80;;;;;;5031024;28;20056;-74
2021/09/24 07:37:56;;;;;;;32.40;12.77;;;17.30;95.80;;;;;;5031795;28;20037;-74
2021/09/24 07:40:21;;;;;;;29.00;12.63;;;17.30;95.80;;;;;;5031164;28;20347;-75
2021/09/24 07:42:47;;;;;;;30.45;12.18;;;17.30;95.90;;;;;;5031406;28;20461;-74
2021/09/24 07:45:13;;;;;;;31.50;12.55;;;17.30;95.90;;;;;;5031144;28;20025;-74
2021/09/24 07:47:38;;;;;;;32.53;13.00;;;17.40;95.80;;;;;;5030472;28;20126;-74
2021/09/24 07:50:05;;;;;;;30.83;12.88;;;17.40;95.80;;;;;;5030517;28;20018;-74
2021/09/24 07:52:31;;;;;;;30.73;12.70;;;17.40;95.80;;;;;;5031017;28;20109;-74
2021/09/24 07:54:58;;;;;;;29.42;13.00;;;17.40;95.80;;;;;;5032809;28;20029;-75
2021/09/24 07:57:24;;;;;;;32.33;14.48;;;17.50;95.80;;;;;;5034723;28;20026;-74
2021/09/24 07:59:49;;;;;;;34.25;13.77;;;17.40;95.80;;;;;;5035450;28;20102;-74
2021/09/24 08:02:16;;;;;;;34.92;13.02;;;17.50;95.80;;;;;;5034491;28;20411;-75
2021/09/24 08:04:41;;;;;;;36.30;13.75;;;17.50;95.80;;;;;;5034345;28;20017;-75
2021/09/24 08:07:08;;;;;;;35.85;14.65;;;17.50;95.70;;;;;;5034119;28;20373;-75
2021/09/24 08:09:34;;;;;;;22.27;9.50;;;17.60;95.70;;;;;;5034658;28;20458;-75
2021/09/24 08:12:00;;;;;;;38.97;14.02;;;17.60;95.70;;;;;;5033920;28;20029;-75
2021/09/24 08:14:26;;;;;;;39.53;14.27;;;17.70;95.60;;;;;;5034619;28;20018;-75
2021/09/24 08:16:52;;;;;;;40.40;14.00;;;17.70;95.60;;;;;;5034837;28;20044;-75
2021/09/24 08:19:17;;;;;;;39.25;15.00;;;17.70;95.60;;;;;;5034265;28;20112;-75
2021/09/24 08:21:43;;;;;;;38.10;14.63;;;17.70;95.60;;;;;;5035264;28;20105;-75
2021/09/24 08:24:09;;;;;;;40.38;13.75;;;17.80;95.60;;;;;;5035018;28;20100;-74
2021/09/24 08:26:34;;;;;;;40.83;15.50;;;17.80;95.50;;;;;;5034423;28;20374;-74
2021/09/24 08:29:00;;;;;;;37.80;15.10;;;17.80;95.50;;;;;;5034509;28;20489;-74
2021/09/24 08:31:26;;;;;;;41.75;15.27;;;17.80;95.50;;;;;;5034300;28;20426;-74
2021/09/24 08:33:52;;;;;;;34.28;12.63;;;17.80;95.50;;;;;;5034712;28;20033;-74
2021/09/24 08:36:18;;;;;;;39.80;14.48;;;17.80;95.50;;;;;;5032376;28;20041;-74
2021/09/24 08:38:44;;;;;;;47.92;16.48;;;17.80;95.60;;;;;;5034694;28;20021;-75
2021/09/24 08:41:10;;;;;;;40.65;15.77;;;17.80;95.50;;;;;;5034735;28;20500;-75
2021/09/24 08:43:36;;;;;;;45.28;14.50;;;17.90;95.50;;;;;;5033927;28;20025;-75
2021/09/24 08:46:03;;;;;;;45.53;15.75;;;17.90;95.50;;;;;;5033206;28;20533;-74
2021/09/24 08:48:29;;;;;;;41.33;13.45;;;17.90;95.40;;;;;;5033869;28;20125;-74
2021/09/24 08:50:55;;;;;;;39.00;14.88;;;17.90;95.40;;;;;;5034569;28;20109;-74
2021/09/24 08:53:22;;;;;;;31.60;12.55;;;18.00;95.40;;;;;;5033696;28;20385;-74
2021/09/24 08:55:48;;;;;;;38.40;14.50;;;18.00;95.30;;;;;;5034199;28;20021;-75
2021/09/24 08:58:15;;;;;;;39.55;15.60;;;18.10;95.30;;;;;;5034048;28;20029;-75
2021/09/24 09:00:43;;;;;;;36.85;13.55;;;18.10;95.30;;;;;;5034094;28;20034;-75
2021/09/24 09:03:13;;;;;;;44.30;15.43;;;18.20;95.20;;;;;;5034219;28;20466;-75
2021/09/24 09:05:46;;;;;;;42.37;15.63;;;18.20;95.20;;;;;;5032138;28;20116;-74
2021/09/24 09:08:19;;;;;;;42.10;16.33;;;18.30;95.10;;;;;;5034166;28;20029;-75
2021/09/24 09:10:52;;;;;;;36.55;13.40;;;18.40;95.10;;;;;;5032752;28;20018;-75
2021/09/24 09:13:19;;;;;;;39.45;14.98;;;18.40;94.90;;;;;;5033714;28;20047;-75
2021/09/24 09:16:07;;;;;;;37.25;14.73;;;18.50;94.90;;;;;;5034114;28;20029;-76
2021/09/24 09:18:36;;;;;;;29.85;12.70;;;18.60;94.90;;;;;;5031907;28;20032;-76
2021/09/24 09:21:05;;;;;;;30.40;12.45;;;18.60;94.70;;;;;;5033935;28;20021;-76
2021/09/24 09:23:33;;;;;;;26.90;10.48;;;18.80;94.60;;;;;;5031965;28;20021;-76
2021/09/24 09:26:02;;;;;;;32.40;13.95;;;18.80;94.50;;;;;;5032457;28;20036;-75
2021/09/24 09:28:36;;;;;;;34.85;15.98;;;18.90;94.40;;;;;;5033140;28;20436;-75
2021/09/24 09:31:15;;;;;;;29.92;13.10;;;19.00;94.20;;;;;;5033799;28;20025;-75
2021/09/24 09:33:40;;;;;;;30.75;13.27;;;19.00;94.20;;;;;;5031835;28;20465;-75
2021/09/24 09:36:06;;;;;;;30.42;12.23;;;19.00;94.10;;;;;;5033777;28;20092;-75
2021/09/24 09:38:40;;;;;;;27.73;12.82;;;19.10;94.10;;;;;;5033019;28;20075;-73
2021/09/24 09:41:08;;;;;;;28.15;13.23;;;19.20;93.90;;;;;;5033501;28;20406;-74
2021/09/24 09:43:37;;;;;;;29.67;12.93;;;19.20;93.80;;;;;;5032997;28;20032;-74
2021/09/24 09:46:08;;;;;;;24.67;12.20;;;19.20;93.80;;;;;;5033571;28;20406;-75
2021/09/24 09:48:35;;;;;;;23.50;11.75;;;19.20;93.70;;;;;;5033228;28;20025;-75
2021/09/24 09:51:01;;;;;;;25.98;11.93;;;19.20;93.70;;;;;;5033268;28;20026;-76
2021/09/24 09:53:27;;;;;;;28.25;13.73;;;19.20;93.70;;;;;;5033005;28;20031;-75
2021/09/24 09:56:00;;;;;;;24.73;11.73;;;19.20;93.70;;;;;;5033241;28;20029;-76
2021/09/24 09:58:32;;;;;;;21.38;10.95;;;19.10;93.70;;;;;;5031201;28;20021;-76
2021/09/24 10:01:17;;;;;;;28.15;12.13;;;19.20;93.70;;;;;;5032978;28;20140;-75
2021/09/24 10:03:50;;;;;;;22.25;10.75;;;19.20;93.60;;;;;;5031278;28;20026;-77
2021/09/24 10:06:20;;;;;;;21.08;10.43;;;19.20;93.60;;;;;;5031713;28;20033;-76
2021/09/24 10:08:51;;;;;;;23.55;11.88;;;19.20;93.50;;;;;;5033057;28;20053;-74
2021/09/24 10:11:19;;;;;;;22.80;11.43;;;19.20;93.40;;;;;;5032966;28;20028;-75
2021/09/24 10:14:00;;;;;;;22.52;11.77;;;19.30;93.40;;;;;;5031495;28;20021;-75
2021/09/24 10:16:32;;;;;;;20.45;10.27;;;19.30;93.30;;;;;;5030835;28;20134;-75
2021/09/24 10:18:59;;;;;;;19.80;9.52;;;19.30;93.20;;;;;;5031954;28;20014;-75
2021/09/24 10:21:25;;;;;;;18.67;9.98;;;19.40;93.10;;;;;;5032393;28;20099;-75
2021/09/24 10:23:52;;;;;;;17.70;9.25;;;19.50;92.90;;;;;;5032658;28;20030;-74
2021/09/24 10:26:30;;;;;;;13.52;7.88;;;19.60;92.80;;;;;;5032528;28;20087;-75
2021/09/24 10:29:10;;;;;;;15.48;8.52;;;19.70;92.80;;;;;;5032689;28;20354;-74
2021/09/24 10:31:38;;;;;;;14.45;8.57;;;19.70;92.60;;;;;;5030633;28;20108;-74
2021/09/24 10:34:04;;;;;;;17.70;10.18;;;19.70;92.40;;;;;;5032540;28;20025;-75
2021/09/24 10:36:38;;;;;;;18.40;9.32;;;19.70;92.20;;;;;;5031754;28;20053;-74
2021/09/24 10:39:26;;;;;;;20.40;9.95;;;19.80;92.20;;;;;;5032321;28;20444;-75
2021/09/24 10:42:18;;;;;;;15.73;9.38;;;19.80;91.90;;;;;;5026880;28;20398;-73
2021/09/24 10:45:03;;;;;;;13.73;8.43;;;19.90;91.70;;;;;;5031647;28;20462;-73
2021/09/24 10:48:00;;;;;;;15.95;8.65;;;19.90;91.70;;;;;;5031543;28;20486;-75
2021/09/24 10:50:36;;;;;;;14.23;7.72;;;20.10;91.50;;;;;;5030348;28;20025;-74
2021/09/24 10:55:54;;;;;;;15.27;7.57;;;20.30;91.20;;;;;;5031583;28;20060;-75
2021/09/24 10:58:26;;;;;;;12.68;7.68;;;20.30;91.10;;;;;;5031587;28;20048;-76
2021/09/24 11:01:01;;;;;;;14.80;7.72;;;20.30;91.10;;;;;;5031933;28;20030;-75
2021/09/24 11:03:28;;;;;;;11.55;6.93;;;20.30;91.00;;;;;;5031396;28;20561;-75
2021/09/24 11:06:02;;;;;;;15.90;8.10;;;20.30;91.00;;;;;;5032487;28;20037;-75
2021/09/24 11:08:36;;;;;;;12.70;8.63;;;20.30;90.90;;;;;;5030284;28;20044;-75
2021/09/24 11:11:16;;;;;;;12.80;7.47;;;20.30;90.70;;;;;;5031961;28;20079;-75
2021/09/24 11:13:47;;;;;;;14.20;8.25;;;20.30;90.70;;;;;;5031334;28;20052;-75
2021/09/24 11:16:24;;;;;;;12.32;6.57;;;20.30;90.60;;;;;;5030575;28;20037;-75
2021/09/24 11:18:56;;;;;;;12.55;6.95;;;20.30;90.60;;;;;;5030638;28;20173;-75
2021/09/24 11:21:30;;;;;;;12.45;7.15;;;20.30;90.40;;;;;;5031809;28;20022;-75
2021/09/24 11:23:57;;;;;;;15.60;7.50;;;20.50;90.30;;;;;;5032146;28;20075;-75
2021/09/24 11:26:29;;;;;;;12.90;7.40;;;20.50;90.20;;;;;;5031960;28;20104;-75
2021/09/24 11:29:11;;;;;;;15.40;7.63;;;20.50;90.10;;;;;;5033185;28;20029;-75
2021/09/24 11:32:04;;;;;;;14.40;7.40;;;20.50;90.10;;;;;;5035155;28;20385;-75
2021/09/24 11:34:39;;;;;;;16.25;8.02;;;20.60;89.90;;;;;;5033949;28;20108;-75
2021/09/24 11:37:22;;;;;;;12.82;7.57;;;20.60;89.80;;;;;;5035984;28;20132;-75
2021/09/24 11:40:04;;;;;;;13.02;7.80;;;20.60;89.80;;;;;;5033557;28;20061;-74
2021/09/24 11:42:38;;;;;;;15.77;8.85;;;20.70;89.50;;;;;;5035243;28;20068;-74
2021/09/24 11:45:11;;;;;;;14.88;8.15;;;20.80;89.10;;;;;;5035935;28;20029;-74
2021/09/24 11:47:43;;;;;;;15.95;8.02;;;20.90;88.90;;;;;;5035104;28;20071;-74
2021/09/24 11:50:30;;;;;;;14.77;7.97;;;21.00;88.30;;;;;;5035748;28;20026;-75
2021/09/24 11:52:57;;;;;;;14.40;7.85;;;21.00;88.10;;;;;;5035027;28;20460;-74
2021/09/24 11:55:29;;;;;;;14.93;8.70;;;21.00;87.90;;;;;;5029083;28;20402;-75
2021/09/24 11:58:18;;;;;;;14.02;8.00;;;20.90;88.30;;;;;;5013397;28;20030;-75
2021/09/24 12:00:49;;;;;;;12.00;7.22;;;20.90;87.60;;;;;;5017839;28;20469;-74
2021/09/24 12:03:22;;;;;;;15.73;9.23;;;21.00;87.40;;;;;;5032457;28;20029;-74
2021/09/24 12:06:02;;;;;;;17.52;9.68;;;21.00;87.20;;;;;;5031510;28;20044;-75
2021/09/24 12:08:42;;;;;;;14.50;7.93;;;20.90;86.90;;;;;;5030911;28;20466;-74
2021/09/24 12:11:10;;;;;;;15.55;8.70;;;21.00;87.00;;;;;;5032141;28;20018;-74
2021/09/24 12:13:45;;;;;;;18.35;9.68;;;21.10;86.70;;;;;;5031817;28;20048;-75
2021/09/24 12:16:26;;;;;;;17.98;9.95;;;21.10;86.60;;;;;;5031582;28;20033;-75
2021/09/24 12:18:56;;;;;;;17.77;10.27;;;21.10;86.60;;;;;;5032644;28;20025;-74
2021/09/24 12:21:37;;;;;;;16.00;9.70;;;20.90;86.80;;;;;;5031014;28;20100;-75
2021/09/24 12:24:13;;;;;;;18.58;9.15;;;20.90;86.80;;;;;;5032834;28;20536;-75
2021/09/24 12:26:42;;;;;;;16.65;9.82;;;20.90;86.90;;;;;;5031938;28;20030;-76
2021/09/24 12:29:24;;;;;;;16.83;8.73;;;20.90;86.60;;;;;;5032658;28;20648;-75
2021/09/24 12:31:53;;;;;;;17.73;9.48;;;20.90;86.30;;;;;;5030644;28;20032;-75
2021/09/24 12:34:47;;;;;;;13.30;7.40;;;20.90;86.30;;;;;;5032094;28;20226;-76
2021/09/24 12:37:15;;;;;;;14.70;8.38;;;20.90;86.40;;;;;;5031133;28;20129;-76
2021/09/24 12:39:53;;;;;;;15.40;8.25;;;20.90;86.20;;;;;;5032126;28;20022;-75
2021/09/24 12:42:18;;;;;;;11.35;7.13;;;21.00;86.40;;;;;;5030651;28;20450;-75